sensor_id;sensor_type;location;lat;lon;timestamp;temperature;humidity
59148;DHT22;44930;52.878;6.168;2022-10-17T00:00:40;12.00;99.90
59148;DHT22;44930;52.878;6.168;2022-10-17T00:03:06;12.10;99.90
59148;DHT22;44930;52.878;6.168;2022-10-17T00:05:31;12.00;99.90
59148;DHT22;44930;52.878;6.168;2022-10-17T00:07:57;12.00;99.90
59148;DHT22;44930;52.878;6.168;2022-10-17T00:10:23;12.10;99.90
59148;DHT22;44930;52.878;6.168;2022-10-17T00:12:50;12.10;99.90
59148;DHT22;44930;52.878;6.168;2022-10-17T00:15:20;12.20;99.90
59148;DHT22;44930;52.878;6.168;2022-10-17T00:17:47;12.20;99.90
59148;DHT22;44930;52.878;6.168;2022-10-17T00:20:12;12.30;99.90
59148;DHT22;44930;52.878;6.168;2022-10-17T00:22:39;12.30;99.90
59148;DHT22;44930;52.878;6.168;2022-10-17T00:27:34;12.40;99.90
59148;DHT22;44930;52.878;6.168;2022-10-17T00:30:00;12.40;99.90
59148;DHT22;44930;52.878;6.168;2022-10-17T00:32:25;12.50;99.90
59148;DHT22;44930;52.878;6.168;2022-10-17T00:34:51;12.50;99.90
59148;DHT22;44930;52.878;6.168;2022-10-17T00:37:16;12.50;99.90
59148;DHT22;44930;52.878;6.168;2022-10-17T00:39:42;12.60;99.90
59148;DHT22;44930;52.878;6.168;2022-10-17T00:42:13;12.60;99.90
59148;DHT22;44930;52.878;6.168;2022-10-17T00:47:08;13.00;99.90
59148;DHT22;44930;52.878;6.168;2022-10-17T00:49:36;12.60;99.90
59148;DHT22;44930;52.878;6.168;2022-10-17T00:54:36;12.70;99.90
59148;DHT22;44930;52.878;6.168;2022-10-17T00:57:04;12.60;99.90
59148;DHT22;44930;52.878;6.168;2022-10-17T00:59:32;12.50;99.90
59148;DHT22;44930;52.878;6.168;2022-10-17T01:02:14;12.80;99.90
59148;DHT22;44930;52.878;6.168;2022-10-17T01:04:42;12.70;99.90
59148;DHT22;44930;52.878;6.168;2022-10-17T01:07:09;12.80;99.90
59148;DHT22;44930;52.878;6.168;2022-10-17T01:09:34;12.70;99.90
59148;DHT22;44930;52.878;6.168;2022-10-17T01:12:21;13.20;99.90
59148;DHT22;44930;52.878;6.168;2022-10-17T01:18:06;13.00;99.90
59148;DHT22;44930;52.878;6.168;2022-10-17T01:25:51;12.90;99.90
59148;DHT22;44930;52.878;6.168;2022-10-17T01:31:31;12.70;99.90
59148;DHT22;44930;52.878;6.168;2022-10-17T01:34:17;12.80;99.90
59148;DHT22;44930;52.878;6.168;2022-10-17T01:39:45;12.60;99.90
59148;DHT22;44930;52.878;6.168;2022-10-17T01:42:20;12.70;99.90
59148;DHT22;44930;52.878;6.168;2022-10-17T01:44:54;12.90;99.90
59148;DHT22;44930;52.878;6.168;2022-10-17T01:47:25;12.70;99.90
59148;DHT22;44930;52.878;6.168;2022-10-17T01:49:54;12.60;99.90
59148;DHT22;44930;52.878;6.168;2022-10-17T01:52:24;12.70;99.90
59148;DHT22;44930;52.878;6.168;2022-10-17T01:54:55;12.60;99.90
59148;DHT22;44930;52.878;6.168;2022-10-17T01:57:35;12.60;99.90
59148;DHT22;44930;52.878;6.168;2022-10-17T02:00:04;12.70;99.90
59148;DHT22;44930;52.878;6.168;2022-10-17T02:02:31;12.70;99.90
59148;DHT22;44930;52.878;6.168;2022-10-17T02:04:58;12.70;99.90
59148;DHT22;44930;52.878;6.168;2022-10-17T02:07:26;12.70;99.90
59148;DHT22;44930;52.878;6.168;2022-10-17T02:09:51;12.70;99.90
59148;DHT22;44930;52.878;6.168;2022-10-17T02:12:46;13.00;99.90
59148;DHT22;44930;52.878;6.168;2022-10-17T02:18:07;12.80;99.90
59148;DHT22;44930;52.878;6.168;2022-10-17T02:20:58;12.80;99.90
59148;DHT22;44930;52.878;6.168;2022-10-17T02:26:19;12.70;99.90
59148;DHT22;44930;52.878;6.168;2022-10-17T02:29:08;12.90;99.90
59148;DHT22;44930;52.878;6.168;2022-10-17T02:31:43;13.00;99.90
59148;DHT22;44930;52.878;6.168;2022-10-17T02:39:11;13.00;99.90
59148;DHT22;44930;52.878;6.168;2022-10-17T02:41:39;13.00;99.90
59148;DHT22;44930;52.878;6.168;2022-10-17T02:44:06;12.90;99.90
59148;DHT22;44930;52.878;6.168;2022-10-17T02:46:33;12.90;99.90
59148;DHT22;44930;52.878;6.168;2022-10-17T02:49:04;12.90;99.90
59148;DHT22;44930;52.878;6.168;2022-10-17T02:54:23;13.10;99.90
59148;DHT22;44930;52.878;6.168;2022-10-17T02:56:56;13.00;99.90
59148;DHT22;44930;52.878;6.168;2022-10-17T03:01:51;13.10;99.90
59148;DHT22;44930;52.878;6.168;2022-10-17T03:04:17;13.10;99.90
59148;DHT22;44930;52.878;6.168;2022-10-17T03:06:44;13.10;99.90
59148;DHT22;44930;52.878;6.168;2022-10-17T03:09:10;13.00;99.90
59148;DHT22;44930;52.878;6.168;2022-10-17T03:11:36;13.10;99.90
59148;DHT22;44930;52.878;6.168;2022-10-17T03:14:02;13.10;99.90
59148;DHT22;44930;52.878;6.168;2022-10-17T03:16:28;13.20;99.90
59148;DHT22;44930;52.878;6.168;2022-10-17T03:18:53;13.10;99.90
59148;DHT22;44930;52.878;6.168;2022-10-17T03:21:19;13.40;99.90
59148;DHT22;44930;52.878;6.168;2022-10-17T03:26:10;13.20;99.90
59148;DHT22;44930;52.878;6.168;2022-10-17T03:28:36;13.10;99.90
59148;DHT22;44930;52.878;6.168;2022-10-17T03:31:14;13.20;99.90
59148;DHT22;44930;52.878;6.168;2022-10-17T03:33:40;13.20;99.90
59148;DHT22;44930;52.878;6.168;2022-10-17T03:36:07;13.10;99.90
59148;DHT22;44930;52.878;6.168;2022-10-17T03:38:34;13.20;99.90
59148;DHT22;44930;52.878;6.168;2022-10-17T03:41:00;13.20;99.90
59148;DHT22;44930;52.878;6.168;2022-10-17T03:43:26;13.00;99.90
59148;DHT22;44930;52.878;6.168;2022-10-17T03:45:51;13.40;99.90
59148;DHT22;44930;52.878;6.168;2022-10-17T03:48:17;13.30;99.90
59148;DHT22;44930;52.878;6.168;2022-10-17T03:50:42;13.20;99.90
59148;DHT22;44930;52.878;6.168;2022-10-17T03:53:08;13.20;99.90
59148;DHT22;44930;52.878;6.168;2022-10-17T03:55:33;13.30;99.90
59148;DHT22;44930;52.878;6.168;2022-10-17T03:57:59;13.20;99.90
59148;DHT22;44930;52.878;6.168;2022-10-17T04:02:50;13.30;99.90
59148;DHT22;44930;52.878;6.168;2022-10-17T04:05:16;13.30;99.90
59148;DHT22;44930;52.878;6.168;2022-10-17T04:07:41;13.40;99.90
59148;DHT22;44930;52.878;6.168;2022-10-17T04:10:07;13.40;99.90
59148;DHT22;44930;52.878;6.168;2022-10-17T04:12:33;13.40;99.90
59148;DHT22;44930;52.878;6.168;2022-10-17T04:14:59;13.30;99.90
59148;DHT22;44930;52.878;6.168;2022-10-17T04:17:24;13.40;99.90
59148;DHT22;44930;52.878;6.168;2022-10-17T04:19:50;13.50;99.90
59148;DHT22;44930;52.878;6.168;2022-10-17T04:22:15;13.50;99.90
59148;DHT22;44930;52.878;6.168;2022-10-17T04:24:41;13.60;99.90
59148;DHT22;44930;52.878;6.168;2022-10-17T04:27:07;13.60;99.90
59148;DHT22;44930;52.878;6.168;2022-10-17T04:29:32;13.50;99.90
59148;DHT22;44930;52.878;6.168;2022-10-17T04:31:58;13.60;99.90
59148;DHT22;44930;52.878;6.168;2022-10-17T04:34:23;13.60;99.90
59148;DHT22;44930;52.878;6.168;2022-10-17T04:36:49;13.70;99.90
59148;DHT22;44930;52.878;6.168;2022-10-17T04:39:16;13.70;99.90
59148;DHT22;44930;52.878;6.168;2022-10-17T04:41:42;14.00;99.90
59148;DHT22;44930;52.878;6.168;2022-10-17T04:44:09;13.80;99.90
59148;DHT22;44930;52.878;6.168;2022-10-17T04:46:35;13.90;99.90
59148;DHT22;44930;52.878;6.168;2022-10-17T04:49:00;13.80;99.90
59148;DHT22;44930;52.878;6.168;2022-10-17T04:51:26;13.70;99.90
59148;DHT22;44930;52.878;6.168;2022-10-17T04:53:52;13.80;99.90
59148;DHT22;44930;52.878;6.168;2022-10-17T04:56:20;13.90;99.90
59148;DHT22;44930;52.878;6.168;2022-10-17T04:58:46;13.80;99.90
59148;DHT22;44930;52.878;6.168;2022-10-17T05:01:15;13.80;99.90
59148;DHT22;44930;52.878;6.168;2022-10-17T05:03:41;13.90;99.90
59148;DHT22;44930;52.878;6.168;2022-10-17T05:06:09;14.10;99.90
59148;DHT22;44930;52.878;6.168;2022-10-17T05:08:35;13.80;99.90
59148;DHT22;44930;52.878;6.168;2022-10-17T05:11:01;13.90;99.90
59148;DHT22;44930;52.878;6.168;2022-10-17T05:13:27;13.90;99.90
59148;DHT22;44930;52.878;6.168;2022-10-17T05:15:53;14.00;99.90
59148;DHT22;44930;52.878;6.168;2022-10-17T05:18:22;13.90;99.90
59148;DHT22;44930;52.878;6.168;2022-10-17T05:20:47;14.00;99.90
59148;DHT22;44930;52.878;6.168;2022-10-17T05:23:13;14.00;99.90
59148;DHT22;44930;52.878;6.168;2022-10-17T05:25:38;13.90;99.90
59148;DHT22;44930;52.878;6.168;2022-10-17T05:28:04;14.00;99.90
59148;DHT22;44930;52.878;6.168;2022-10-17T05:30:29;13.90;99.90
59148;DHT22;44930;52.878;6.168;2022-10-17T05:32:55;14.00;99.90
59148;DHT22;44930;52.878;6.168;2022-10-17T05:35:21;14.10;99.90
59148;DHT22;44930;52.878;6.168;2022-10-17T05:37:47;14.10;99.90
59148;DHT22;44930;52.878;6.168;2022-10-17T05:40:12;14.20;99.90
59148;DHT22;44930;52.878;6.168;2022-10-17T05:42:38;14.10;99.90
59148;DHT22;44930;52.878;6.168;2022-10-17T05:45:04;14.20;99.90
59148;DHT22;44930;52.878;6.168;2022-10-17T05:47:30;14.20;99.90
59148;DHT22;44930;52.878;6.168;2022-10-17T05:49:55;14.40;99.90
59148;DHT22;44930;52.878;6.168;2022-10-17T05:52:21;14.20;99.90
59148;DHT22;44930;52.878;6.168;2022-10-17T05:54:47;14.30;99.90
59148;DHT22;44930;52.878;6.168;2022-10-17T05:57:12;14.40;99.90
59148;DHT22;44930;52.878;6.168;2022-10-17T05:59:38;14.40;99.90
59148;DHT22;44930;52.878;6.168;2022-10-17T06:02:03;14.50;99.90
59148;DHT22;44930;52.878;6.168;2022-10-17T06:04:29;14.40;99.90
59148;DHT22;44930;52.878;6.168;2022-10-17T06:06:54;14.50;99.90
59148;DHT22;44930;52.878;6.168;2022-10-17T06:09:21;14.50;99.90
59148;DHT22;44930;52.878;6.168;2022-10-17T06:11:47;14.50;99.90
59148;DHT22;44930;52.878;6.168;2022-10-17T06:14:13;14.50;99.90
59148;DHT22;44930;52.878;6.168;2022-10-17T06:16:38;14.70;99.90
59148;DHT22;44930;52.878;6.168;2022-10-17T06:19:04;14.50;99.90
59148;DHT22;44930;52.878;6.168;2022-10-17T06:21:30;14.70;99.90
59148;DHT22;44930;52.878;6.168;2022-10-17T06:23:59;14.90;99.90
59148;DHT22;44930;52.878;6.168;2022-10-17T06:26:24;14.70;99.90
59148;DHT22;44930;52.878;6.168;2022-10-17T06:28:50;14.90;99.90
59148;DHT22;44930;52.878;6.168;2022-10-17T06:31:16;15.00;99.90
59148;DHT22;44930;52.878;6.168;2022-10-17T06:33:41;15.00;99.90
59148;DHT22;44930;52.878;6.168;2022-10-17T06:36:10;15.00;99.90
59148;DHT22;44930;52.878;6.168;2022-10-17T06:38:36;14.80;99.90
59148;DHT22;44930;52.878;6.168;2022-10-17T06:43:29;14.90;99.90
59148;DHT22;44930;52.878;6.168;2022-10-17T06:45:54;15.20;99.90
59148;DHT22;44930;52.878;6.168;2022-10-17T06:48:20;15.10;99.90
59148;DHT22;44930;52.878;6.168;2022-10-17T06:50:45;15.60;99.90
59148;DHT22;44930;52.878;6.168;2022-10-17T06:53:11;15.20;99.90
59148;DHT22;44930;52.878;6.168;2022-10-17T06:55:36;15.20;99.90
59148;DHT22;44930;52.878;6.168;2022-10-17T06:58:02;15.20;99.90
59148;DHT22;44930;52.878;6.168;2022-10-17T07:00:27;15.10;99.90
59148;DHT22;44930;52.878;6.168;2022-10-17T07:02:53;15.30;99.90
59148;DHT22;44930;52.878;6.168;2022-10-17T07:05:18;15.40;99.90
59148;DHT22;44930;52.878;6.168;2022-10-17T07:10:11;15.30;99.90
59148;DHT22;44930;52.878;6.168;2022-10-17T07:12:36;15.40;99.90
59148;DHT22;44930;52.878;6.168;2022-10-17T07:15:03;15.30;99.90
59148;DHT22;44930;52.878;6.168;2022-10-17T07:17:29;15.50;99.90
59148;DHT22;44930;52.878;6.168;2022-10-17T07:19:55;15.40;99.90
59148;DHT22;44930;52.878;6.168;2022-10-17T07:22:21;15.40;99.90
59148;DHT22;44930;52.878;6.168;2022-10-17T07:24:46;15.20;99.90
59148;DHT22;44930;52.878;6.168;2022-10-17T07:27:13;15.40;99.90
59148;DHT22;44930;52.878;6.168;2022-10-17T07:29:38;15.70;99.90
59148;DHT22;44930;52.878;6.168;2022-10-17T07:32:04;15.50;99.90
59148;DHT22;44930;52.878;6.168;2022-10-17T07:34:33;15.50;99.90
59148;DHT22;44930;52.878;6.168;2022-10-17T07:36:59;15.60;99.90
59148;DHT22;44930;52.878;6.168;2022-10-17T07:39:25;15.40;99.90
59148;DHT22;44930;52.878;6.168;2022-10-17T07:41:50;15.50;99.90
59148;DHT22;44930;52.878;6.168;2022-10-17T07:44:16;15.70;99.90
59148;DHT22;44930;52.878;6.168;2022-10-17T07:46:42;15.60;99.90
59148;DHT22;44930;52.878;6.168;2022-10-17T07:49:07;15.80;99.90
59148;DHT22;44930;52.878;6.168;2022-10-17T07:51:33;15.90;99.90
59148;DHT22;44930;52.878;6.168;2022-10-17T07:53:58;15.80;99.90
59148;DHT22;44930;52.878;6.168;2022-10-17T07:56:24;15.90;99.90
59148;DHT22;44930;52.878;6.168;2022-10-17T07:58:50;15.70;99.90
59148;DHT22;44930;52.878;6.168;2022-10-17T08:01:16;15.80;99.90
59148;DHT22;44930;52.878;6.168;2022-10-17T08:03:46;15.90;99.90
59148;DHT22;44930;52.878;6.168;2022-10-17T08:06:13;15.90;99.90
59148;DHT22;44930;52.878;6.168;2022-10-17T08:08:39;15.70;99.90
59148;DHT22;44930;52.878;6.168;2022-10-17T08:11:10;16.30;99.90
59148;DHT22;44930;52.878;6.168;2022-10-17T08:13:38;15.80;99.90
59148;DHT22;44930;52.878;6.168;2022-10-17T08:16:06;16.30;99.90
59148;DHT22;44930;52.878;6.168;2022-10-17T08:18:33;16.00;99.90
59148;DHT22;44930;52.878;6.168;2022-10-17T08:21:00;16.00;99.90
59148;DHT22;44930;52.878;6.168;2022-10-17T08:23:26;16.10;99.90
59148;DHT22;44930;52.878;6.168;2022-10-17T08:25:52;16.00;99.90
59148;DHT22;44930;52.878;6.168;2022-10-17T08:28:17;15.70;99.90
59148;DHT22;44930;52.878;6.168;2022-10-17T08:30:43;16.10;99.90
59148;DHT22;44930;52.878;6.168;2022-10-17T08:33:08;16.30;99.90
59148;DHT22;44930;52.878;6.168;2022-10-17T08:35:34;15.90;99.90
59148;DHT22;44930;52.878;6.168;2022-10-17T08:38:00;16.20;99.90
59148;DHT22;44930;52.878;6.168;2022-10-17T08:40:28;16.10;99.90
59148;DHT22;44930;52.878;6.168;2022-10-17T08:43:33;16.20;99.90
59148;DHT22;44930;52.878;6.168;2022-10-17T08:46:04;16.00;99.90
59148;DHT22;44930;52.878;6.168;2022-10-17T08:48:37;16.10;99.90
59148;DHT22;44930;52.878;6.168;2022-10-17T08:51:20;16.30;99.90
59148;DHT22;44930;52.878;6.168;2022-10-17T08:56:33;16.30;99.90
59148;DHT22;44930;52.878;6.168;2022-10-17T08:59:00;16.40;99.90
59148;DHT22;44930;52.878;6.168;2022-10-17T09:04:20;16.20;99.90
59148;DHT22;44930;52.878;6.168;2022-10-17T09:07:09;16.10;99.90
59148;DHT22;44930;52.878;6.168;2022-10-17T09:12:34;16.80;99.90
59148;DHT22;44930;52.878;6.168;2022-10-17T09:18:19;16.70;99.90
59148;DHT22;44930;52.878;6.168;2022-10-17T09:20:58;16.90;99.90
59148;DHT22;44930;52.878;6.168;2022-10-17T09:23:32;16.60;99.90
59148;DHT22;44930;52.878;6.168;2022-10-17T09:26:00;16.60;99.90
59148;DHT22;44930;52.878;6.168;2022-10-17T09:28:37;16.10;99.90
59148;DHT22;44930;52.878;6.168;2022-10-17T09:31:12;16.60;99.90
59148;DHT22;44930;52.878;6.168;2022-10-17T09:33:42;16.60;99.90
59148;DHT22;44930;52.878;6.168;2022-10-17T09:36:13;16.20;99.90
59148;DHT22;44930;52.878;6.168;2022-10-17T09:38:48;16.50;99.90
59148;DHT22;44930;52.878;6.168;2022-10-17T09:41:17;16.70;99.90
59148;DHT22;44930;52.878;6.168;2022-10-17T09:43:43;16.50;99.90
59148;DHT22;44930;52.878;6.168;2022-10-17T09:46:29;16.50;99.90
59148;DHT22;44930;52.878;6.168;2022-10-17T09:51:30;16.10;99.90
59148;DHT22;44930;52.878;6.168;2022-10-17T09:54:00;16.30;99.90
59148;DHT22;44930;52.878;6.168;2022-10-17T09:56:27;16.30;99.90
59148;DHT22;44930;52.878;6.168;2022-10-17T09:58:56;16.70;99.90
59148;DHT22;44930;52.878;6.168;2022-10-17T10:01:28;16.30;99.90
59148;DHT22;44930;52.878;6.168;2022-10-17T10:04:14;16.40;99.90
59148;DHT22;44930;52.878;6.168;2022-10-17T10:06:59;16.30;99.90
59148;DHT22;44930;52.878;6.168;2022-10-17T10:09:30;16.10;99.90
59148;DHT22;44930;52.878;6.168;2022-10-17T10:11:58;16.20;99.90
59148;DHT22;44930;52.878;6.168;2022-10-17T10:16:58;16.50;99.90
59148;DHT22;44930;52.878;6.168;2022-10-17T10:19:35;16.20;99.90
59148;DHT22;44930;52.878;6.168;2022-10-17T10:22:15;16.30;99.90
59148;DHT22;44930;52.878;6.168;2022-10-17T10:24:41;16.30;99.90
59148;DHT22;44930;52.878;6.168;2022-10-17T10:27:15;16.10;99.90
59148;DHT22;44930;52.878;6.168;2022-10-17T10:29:49;16.00;99.90
59148;DHT22;44930;52.878;6.168;2022-10-17T10:32:25;16.30;99.90
59148;DHT22;44930;52.878;6.168;2022-10-17T10:37:22;16.00;99.90
59148;DHT22;44930;52.878;6.168;2022-10-17T10:39:53;16.20;99.90
59148;DHT22;44930;52.878;6.168;2022-10-17T10:42:32;15.90;99.90
59148;DHT22;44930;52.878;6.168;2022-10-17T10:45:25;16.50;99.90
59148;DHT22;44930;52.878;6.168;2022-10-17T10:47:53;15.90;99.90
59148;DHT22;44930;52.878;6.168;2022-10-17T10:50:58;16.30;99.90
59148;DHT22;44930;52.878;6.168;2022-10-17T10:56:21;16.00;99.90
59148;DHT22;44930;52.878;6.168;2022-10-17T10:59:15;16.00;99.90
59148;DHT22;44930;52.878;6.168;2022-10-17T11:01:45;16.20;99.90
59148;DHT22;44930;52.878;6.168;2022-10-17T11:04:22;16.00;99.90
59148;DHT22;44930;52.878;6.168;2022-10-17T11:06:52;16.20;99.90
59148;DHT22;44930;52.878;6.168;2022-10-17T11:15:19;16.60;99.90
59148;DHT22;44930;52.878;6.168;2022-10-17T11:17:58;16.30;99.90
59148;DHT22;44930;52.878;6.168;2022-10-17T11:23:39;16.20;99.90
59148;DHT22;44930;52.878;6.168;2022-10-17T11:26:12;16.50;99.90
59148;DHT22;44930;52.878;6.168;2022-10-17T11:28:40;16.30;99.90
59148;DHT22;44930;52.878;6.168;2022-10-17T11:31:09;16.20;99.90
59148;DHT22;44930;52.878;6.168;2022-10-17T11:33:48;16.40;99.90
59148;DHT22;44930;52.878;6.168;2022-10-17T11:36:16;16.40;99.90
59148;DHT22;44930;52.878;6.168;2022-10-17T11:38:54;16.30;99.90
59148;DHT22;44930;52.878;6.168;2022-10-17T11:41:28;16.40;99.90
59148;DHT22;44930;52.878;6.168;2022-10-17T11:44:26;16.40;99.90
59148;DHT22;44930;52.878;6.168;2022-10-17T11:46:57;16.10;99.90
59148;DHT22;44930;52.878;6.168;2022-10-17T11:49:29;16.10;99.90
59148;DHT22;44930;52.878;6.168;2022-10-17T11:54:53;16.60;99.90
59148;DHT22;44930;52.878;6.168;2022-10-17T12:03:11;16.60;99.90
59148;DHT22;44930;52.878;6.168;2022-10-17T12:05:55;16.40;99.90
59148;DHT22;44930;52.878;6.168;2022-10-17T12:08:27;16.40;99.90
59148;DHT22;44930;52.878;6.168;2022-10-17T12:11:00;16.50;99.90
59148;DHT22;44930;52.878;6.168;2022-10-17T12:16:35;16.50;99.90
59148;DHT22;44930;52.878;6.168;2022-10-17T12:18:48;16.70;99.90
59148;DHT22;44930;52.878;6.168;2022-10-17T12:21:14;16.60;99.90
59148;DHT22;44930;52.878;6.168;2022-10-17T12:23:40;16.90;99.90
59148;DHT22;44930;52.878;6.168;2022-10-17T12:26:09;16.70;99.90
59148;DHT22;44930;52.878;6.168;2022-10-17T12:28:46;16.50;99.90
59148;DHT22;44930;52.878;6.168;2022-10-17T12:33:56;16.20;99.90
59148;DHT22;44930;52.878;6.168;2022-10-17T12:49:42;16.30;99.90
59148;DHT22;44930;52.878;6.168;2022-10-17T12:57:56;16.00;99.90
59148;DHT22;44930;52.878;6.168;2022-10-17T13:00:51;16.00;99.90
59148;DHT22;44930;52.878;6.168;2022-10-17T13:03:25;16.50;99.90
59148;DHT22;44930;52.878;6.168;2022-10-17T13:06:04;15.70;99.90
59148;DHT22;44930;52.878;6.168;2022-10-17T13:08:34;16.20;99.90
59148;DHT22;44930;52.878;6.168;2022-10-17T13:11:00;16.00;99.90
59148;DHT22;44930;52.878;6.168;2022-10-17T13:13:49;16.40;99.90
59148;DHT22;44930;52.878;6.168;2022-10-17T13:16:34;16.20;99.90
59148;DHT22;44930;52.878;6.168;2022-10-17T13:19:12;16.00;99.90
59148;DHT22;44930;52.878;6.168;2022-10-17T13:21:38;15.90;99.90
59148;DHT22;44930;52.878;6.168;2022-10-17T13:24:32;15.90;99.90
59148;DHT22;44930;52.878;6.168;2022-10-17T13:26:59;15.90;99.90
59148;DHT22;44930;52.878;6.168;2022-10-17T13:29:26;15.80;99.90
59148;DHT22;44930;52.878;6.168;2022-10-17T13:31:55;15.70;99.90
59148;DHT22;44930;52.878;6.168;2022-10-17T13:34:24;15.80;99.90
59148;DHT22;44930;52.878;6.168;2022-10-17T13:37:02;15.80;99.90
59148;DHT22;44930;52.878;6.168;2022-10-17T13:39:33;16.10;99.90
59148;DHT22;44930;52.878;6.168;2022-10-17T13:42:00;15.10;99.90
59148;DHT22;44930;52.878;6.168;2022-10-17T13:44:27;15.70;99.90
59148;DHT22;44930;52.878;6.168;2022-10-17T13:46:56;15.80;99.90
59148;DHT22;44930;52.878;6.168;2022-10-17T13:49:33;15.70;99.90
59148;DHT22;44930;52.878;6.168;2022-10-17T13:52:01;15.60;99.90
59148;DHT22;44930;52.878;6.168;2022-10-17T13:54:37;15.60;99.90
59148;DHT22;44930;52.878;6.168;2022-10-17T13:57:13;15.10;99.90
59148;DHT22;44930;52.878;6.168;2022-10-17T13:59:41;15.70;99.90
59148;DHT22;44930;52.878;6.168;2022-10-17T14:02:14;15.60;99.90
59148;DHT22;44930;52.878;6.168;2022-10-17T14:04:40;15.30;99.90
59148;DHT22;44930;52.878;6.168;2022-10-17T14:07:11;15.60;99.90
59148;DHT22;44930;52.878;6.168;2022-10-17T14:09:45;15.90;99.90
59148;DHT22;44930;52.878;6.168;2022-10-17T14:12:11;15.40;99.90
59148;DHT22;44930;52.878;6.168;2022-10-17T14:17:17;15.70;99.90
59148;DHT22;44930;52.878;6.168;2022-10-17T14:19:53;15.80;99.90
59148;DHT22;44930;52.878;6.168;2022-10-17T14:24:45;15.70;99.90
59148;DHT22;44930;52.878;6.168;2022-10-17T14:27:50;15.60;99.90
59148;DHT22;44930;52.878;6.168;2022-10-17T14:32:56;16.00;99.90
59148;DHT22;44930;52.878;6.168;2022-10-17T14:35:22;15.60;99.90
59148;DHT22;44930;52.878;6.168;2022-10-17T14:37:50;15.40;99.90
59148;DHT22;44930;52.878;6.168;2022-10-17T14:40:19;15.70;99.90
59148;DHT22;44930;52.878;6.168;2022-10-17T14:42:45;15.50;99.90
59148;DHT22;44930;52.878;6.168;2022-10-17T14:45:14;15.40;99.90
59148;DHT22;44930;52.878;6.168;2022-10-17T14:47:42;15.40;99.90
59148;DHT22;44930;52.878;6.168;2022-10-17T14:52:37;15.20;99.90
59148;DHT22;44930;52.878;6.168;2022-10-17T14:55:24;15.40;99.90
59148;DHT22;44930;52.878;6.168;2022-10-17T14:57:50;15.40;99.90
59148;DHT22;44930;52.878;6.168;2022-10-17T15:00:17;15.40;99.90
59148;DHT22;44930;52.878;6.168;2022-10-17T15:02:44;15.50;99.90
59148;DHT22;44930;52.878;6.168;2022-10-17T15:05:11;15.50;99.90
59148;DHT22;44930;52.878;6.168;2022-10-17T15:07:37;16.10;99.90
59148;DHT22;44930;52.878;6.168;2022-10-17T15:10:03;15.50;99.90
59148;DHT22;44930;52.878;6.168;2022-10-17T15:12:29;15.50;99.90
59148;DHT22;44930;52.878;6.168;2022-10-17T15:14:55;15.60;99.90
59148;DHT22;44930;52.878;6.168;2022-10-17T15:17:25;15.70;99.90
59148;DHT22;44930;52.878;6.168;2022-10-17T15:19:52;15.60;99.90
59148;DHT22;44930;52.878;6.168;2022-10-17T15:22:17;15.80;99.90
59148;DHT22;44930;52.878;6.168;2022-10-17T15:24:43;15.90;99.90
59148;DHT22;44930;52.878;6.168;2022-10-17T15:27:22;15.50;99.90
59148;DHT22;44930;52.878;6.168;2022-10-17T15:29:49;15.80;99.90
59148;DHT22;44930;52.878;6.168;2022-10-17T15:32:16;15.40;99.90
59148;DHT22;44930;52.878;6.168;2022-10-17T15:34:42;15.70;99.90
59148;DHT22;44930;52.878;6.168;2022-10-17T15:37:21;15.70;99.90
59148;DHT22;44930;52.878;6.168;2022-10-17T15:39:52;15.60;99.90
59148;DHT22;44930;52.878;6.168;2022-10-17T15:42:25;15.80;99.90
59148;DHT22;44930;52.878;6.168;2022-10-17T15:44:51;15.40;99.90
59148;DHT22;44930;52.878;6.168;2022-10-17T15:49:49;15.80;99.90
59148;DHT22;44930;52.878;6.168;2022-10-17T15:52:14;15.30;99.90
59148;DHT22;44930;52.878;6.168;2022-10-17T15:54:40;15.40;99.90
59148;DHT22;44930;52.878;6.168;2022-10-17T15:57:05;15.50;99.90
59148;DHT22;44930;52.878;6.168;2022-10-17T15:59:34;15.70;99.90
59148;DHT22;44930;52.878;6.168;2022-10-17T16:02:00;15.10;99.90
59148;DHT22;44930;52.878;6.168;2022-10-17T16:06:53;15.30;99.90
59148;DHT22;44930;52.878;6.168;2022-10-17T16:09:18;14.80;99.90
59148;DHT22;44930;52.878;6.168;2022-10-17T16:11:44;15.60;99.90
59148;DHT22;44930;52.878;6.168;2022-10-17T16:14:15;15.40;99.90
59148;DHT22;44930;52.878;6.168;2022-10-17T16:16:41;15.20;99.90
59148;DHT22;44930;52.878;6.168;2022-10-17T16:19:07;15.20;99.90
59148;DHT22;44930;52.878;6.168;2022-10-17T16:21:35;15.40;99.90
59148;DHT22;44930;52.878;6.168;2022-10-17T16:24:01;15.30;99.90
59148;DHT22;44930;52.878;6.168;2022-10-17T16:26:28;15.20;99.90
59148;DHT22;44930;52.878;6.168;2022-10-17T16:28:53;15.20;99.90
59148;DHT22;44930;52.878;6.168;2022-10-17T16:31:23;15.10;99.90
59148;DHT22;44930;52.878;6.168;2022-10-17T16:33:50;15.60;99.90
59148;DHT22;44930;52.878;6.168;2022-10-17T16:36:17;15.30;99.90
59148;DHT22;44930;52.878;6.168;2022-10-17T16:38:43;15.40;99.90
59148;DHT22;44930;52.878;6.168;2022-10-17T16:41:29;15.30;99.90
59148;DHT22;44930;52.878;6.168;2022-10-17T16:43:57;15.20;99.90
59148;DHT22;44930;52.878;6.168;2022-10-17T16:46:24;15.20;99.90
59148;DHT22;44930;52.878;6.168;2022-10-17T16:48:50;15.30;99.90
59148;DHT22;44930;52.878;6.168;2022-10-17T16:51:17;15.10;99.90
59148;DHT22;44930;52.878;6.168;2022-10-17T16:53:44;15.20;99.90
59148;DHT22;44930;52.878;6.168;2022-10-17T16:56:13;15.20;99.90
59148;DHT22;44930;52.878;6.168;2022-10-17T16:58:41;15.00;99.90
59148;DHT22;44930;52.878;6.168;2022-10-17T17:01:09;15.10;99.90
59148;DHT22;44930;52.878;6.168;2022-10-17T17:03:36;15.20;99.90
59148;DHT22;44930;52.878;6.168;2022-10-17T17:06:03;15.10;99.90
59148;DHT22;44930;52.878;6.168;2022-10-17T17:08:30;15.20;99.90
59148;DHT22;44930;52.878;6.168;2022-10-17T17:13:23;14.70;99.90
59148;DHT22;44930;52.878;6.168;2022-10-17T17:15:49;14.80;99.90
59148;DHT22;44930;52.878;6.168;2022-10-17T17:18:21;15.10;99.90
59148;DHT22;44930;52.878;6.168;2022-10-17T17:20:46;15.10;99.90
59148;DHT22;44930;52.878;6.168;2022-10-17T17:23:13;15.20;99.90
59148;DHT22;44930;52.878;6.168;2022-10-17T17:25:38;14.70;99.90
59148;DHT22;44930;52.878;6.168;2022-10-17T17:28:07;14.90;99.90
59148;DHT22;44930;52.878;6.168;2022-10-17T17:30:33;15.00;99.90
59148;DHT22;44930;52.878;6.168;2022-10-17T17:32:59;14.90;99.90
59148;DHT22;44930;52.878;6.168;2022-10-17T17:35:25;14.90;99.90
59148;DHT22;44930;52.878;6.168;2022-10-17T17:37:51;14.90;99.90
59148;DHT22;44930;52.878;6.168;2022-10-17T17:40:17;14.80;99.90
59148;DHT22;44930;52.878;6.168;2022-10-17T17:42:42;14.70;99.90
59148;DHT22;44930;52.878;6.168;2022-10-17T17:45:08;14.70;99.90
59148;DHT22;44930;52.878;6.168;2022-10-17T17:47:34;14.80;99.90
59148;DHT22;44930;52.878;6.168;2022-10-17T17:49:59;14.80;99.90
59148;DHT22;44930;52.878;6.168;2022-10-17T17:52:25;14.80;99.90